createdAt,value
2022-09-17T00:01:49.912Z,9.48
2022-09-17T00:04:16.114Z,9.47
2022-09-17T00:06:42.294Z,9.45
2022-09-17T00:09:08.648Z,9.54
2022-09-17T00:11:34.800Z,9.65
2022-09-17T00:14:00.989Z,9.64
2022-09-17T00:16:27.317Z,9.59
2022-09-17T00:18:53.597Z,9.64
2022-09-17T00:21:19.808Z,9.73
2022-09-17T00:23:46.033Z,9.65
2022-09-17T00:26:12.236Z,9.54
2022-09-17T00:28:38.432Z,9.64
2022-09-17T00:31:04.653Z,9.64
2022-09-17T00:33:30.803Z,9.66
2022-09-17T00:35:57.019Z,9.62
2022-09-17T00:38:23.201Z,9.69
2022-09-17T00:40:49.439Z,9.81
2022-09-17T00:43:15.613Z,9.83
2022-09-17T00:45:41.752Z,9.78
2022-09-17T00:48:07.867Z,9.79
2022-09-17T00:50:34.116Z,9.73
2022-09-17T00:53:00.329Z,9.65
2022-09-17T00:55:26.431Z,9.69
2022-09-17T00:57:52.694Z,9.72
2022-09-17T01:00:18.837Z,9.72
2022-09-17T01:02:44.937Z,9.74
2022-09-17T01:05:11.014Z,9.62
2022-09-17T01:07:37.130Z,9.63
2022-09-17T01:10:03.265Z,9.70
2022-09-17T01:12:29.408Z,9.73
2022-09-17T01:14:55.506Z,9.66
2022-09-17T01:17:21.625Z,9.67
2022-09-17T01:19:47.733Z,9.66
2022-09-17T01:22:13.887Z,9.67
2022-09-17T01:24:39.998Z,9.58
2022-09-17T01:27:06.114Z,9.66
2022-09-17T01:29:32.221Z,9.73
2022-09-17T01:31:58.322Z,9.76
2022-09-17T01:34:24.411Z,9.74
2022-09-17T01:36:50.518Z,9.69
2022-09-17T01:39:16.626Z,9.67
2022-09-17T01:41:42.730Z,9.71
2022-09-17T01:44:08.857Z,9.71
2022-09-17T01:46:34.993Z,9.69
2022-09-17T01:49:01.120Z,9.79
2022-09-17T01:51:27.233Z,9.73
2022-09-17T01:53:53.472Z,9.80
2022-09-17T01:56:19.671Z,9.79
2022-09-17T01:58:45.771Z,9.67
2022-09-17T02:01:11.943Z,9.77
2022-09-17T02:03:38.076Z,9.71
2022-09-17T02:06:04.199Z,9.68
2022-09-17T02:08:30.289Z,9.62
2022-09-17T02:10:56.433Z,9.63
2022-09-17T02:13:22.628Z,9.64
2022-09-17T02:15:48.779Z,9.69
2022-09-17T02:18:14.882Z,9.68
2022-09-17T02:20:40.997Z,9.66
2022-09-17T02:23:07.104Z,9.73
2022-09-17T02:25:33.207Z,9.66
2022-09-17T02:27:59.655Z,9.59
2022-09-17T02:30:25.758Z,9.62
2022-09-17T02:32:51.854Z,9.62
2022-09-17T02:35:17.960Z,9.56
2022-09-17T02:37:44.058Z,9.55
2022-09-17T02:40:10.172Z,9.52
2022-09-17T02:42:36.346Z,9.54
2022-09-17T02:45:02.449Z,9.66
2022-09-17T02:47:28.548Z,9.62
2022-09-17T02:49:54.668Z,9.64
2022-09-17T02:52:20.761Z,9.57
2022-09-17T02:54:46.850Z,9.57
2022-09-17T02:57:12.963Z,9.65
2022-09-17T02:59:39.066Z,9.66
2022-09-17T03:02:05.290Z,9.66
2022-09-17T03:04:31.502Z,9.69
2022-09-17T03:06:57.602Z,9.67
2022-09-17T03:09:23.699Z,9.67
2022-09-17T03:11:49.820Z,9.74
2022-09-17T03:14:15.941Z,9.67
2022-09-17T03:16:42.050Z,9.69
2022-09-17T03:19:08.220Z,9.72
2022-09-17T03:21:34.322Z,9.79
2022-09-17T03:24:00.427Z,9.76
2022-09-17T03:26:26.547Z,9.72
2022-09-17T03:28:52.659Z,9.84
2022-09-17T03:31:18.826Z,9.76
2022-09-17T03:33:44.959Z,9.74
2022-09-17T03:36:11.040Z,9.81
2022-09-17T03:38:37.131Z,9.70
2022-09-17T03:41:03.250Z,9.73
2022-09-17T03:43:29.364Z,9.78
2022-09-17T03:45:55.454Z,9.76
2022-09-17T03:48:21.565Z,9.73
2022-09-17T03:50:47.661Z,9.74
2022-09-17T03:53:13.749Z,9.66
2022-09-17T03:55:39.856Z,9.64
2022-09-17T03:58:05.957Z,9.73
2022-09-17T04:00:32.045Z,9.64
2022-09-17T04:02:58.200Z,9.66
2022-09-17T04:05:24.365Z,9.69
2022-09-17T04:07:50.461Z,9.70
2022-09-17T04:10:16.590Z,9.60
2022-09-17T04:12:42.701Z,9.62
2022-09-17T04:15:08.804Z,9.66
2022-09-17T04:17:34.922Z,9.62
2022-09-17T04:20:01.023Z,9.58
2022-09-17T04:22:27.105Z,9.65
2022-09-17T04:24:53.218Z,9.63
2022-09-17T04:27:19.313Z,9.57
2022-09-17T04:29:45.420Z,9.48
2022-09-17T04:32:11.569Z,9.53
2022-09-17T04:34:37.675Z,9.52
2022-09-17T04:37:03.774Z,9.48
2022-09-17T04:39:29.889Z,9.42
2022-09-17T04:41:55.990Z,9.52
2022-09-17T04:44:22.110Z,9.43
2022-09-17T04:46:48.288Z,9.40
2022-09-17T04:49:14.412Z,9.40
2022-09-17T04:51:40.506Z,9.47
2022-09-17T04:54:06.629Z,9.43
2022-09-17T04:56:32.735Z,9.46
2022-09-17T04:58:58.836Z,9.46
2022-09-17T05:01:25.032Z,9.46
2022-09-17T05:03:51.156Z,9.43
2022-09-17T05:06:17.243Z,9.30
2022-09-17T05:08:43.353Z,9.43
2022-09-17T05:11:09.449Z,9.44
2022-09-17T05:13:35.542Z,9.34
2022-09-17T05:16:01.687Z,9.37
2022-09-17T05:18:27.832Z,9.44
2022-09-17T05:20:53.976Z,9.42
2022-09-17T05:23:20.073Z,9.49
2022-09-17T05:25:46.156Z,9.53
2022-09-17T05:28:12.255Z,9.43
2022-09-17T05:30:38.377Z,9.52
2022-09-17T05:33:04.474Z,9.48
2022-09-17T05:35:30.570Z,9.54
2022-09-17T05:37:57.227Z,9.52
2022-09-17T05:40:23.377Z,9.59
2022-09-17T05:42:49.525Z,9.63
2022-09-17T05:45:15.643Z,9.65
2022-09-17T05:47:41.732Z,9.60
2022-09-17T05:50:07.835Z,9.51
2022-09-17T05:52:33.963Z,9.50
2022-09-17T05:55:00.085Z,9.60
2022-09-17T05:57:26.180Z,9.69
2022-09-17T05:59:52.325Z,9.70
2022-09-17T06:02:18.511Z,9.71
2022-09-17T06:04:44.694Z,9.64
2022-09-17T06:07:10.812Z,9.65
2022-09-17T06:09:36.904Z,9.66
2022-09-17T06:12:02.996Z,9.70
2022-09-17T06:14:29.102Z,9.72
2022-09-17T06:16:55.186Z,9.82
2022-09-17T06:19:21.292Z,9.79
2022-09-17T06:21:47.883Z,9.84
2022-09-17T06:24:13.974Z,9.93
2022-09-17T06:26:40.054Z,9.98
2022-09-17T06:29:06.174Z,9.99
2022-09-17T06:31:32.353Z,10.02
2022-09-17T06:33:58.682Z,10.11
2022-09-17T06:36:24.821Z,10.13
2022-09-17T06:38:50.907Z,10.11
2022-09-17T06:41:17.018Z,10.19
2022-09-17T06:43:43.136Z,10.23
2022-09-17T06:46:09.491Z,10.20
2022-09-17T06:48:35.679Z,10.33
2022-09-17T06:51:01.783Z,10.32
2022-09-17T06:53:27.876Z,10.31
2022-09-17T06:55:53.972Z,10.36
2022-09-17T06:58:20.445Z,10.36
2022-09-17T07:00:46.607Z,10.31
2022-09-17T07:03:12.717Z,10.20
2022-09-17T07:05:38.819Z,10.17
2022-09-17T07:08:04.906Z,10.23
2022-09-17T07:10:30.995Z,10.17
2022-09-17T07:12:57.105Z,10.15
2022-09-17T07:15:23.185Z,10.13
2022-09-17T07:17:49.291Z,10.10
2022-09-17T07:20:15.398Z,10.13
2022-09-17T07:22:41.489Z,10.26
2022-09-17T07:25:07.586Z,10.34
2022-09-17T07:27:33.687Z,10.35
2022-09-17T07:29:59.786Z,10.29
2022-09-17T07:32:29.726Z,10.46
2022-09-17T07:34:55.890Z,10.41
2022-09-17T07:37:22.013Z,10.21
2022-09-17T07:39:48.103Z,10.24
2022-09-17T07:42:14.775Z,10.31
2022-09-17T07:44:40.942Z,10.42
2022-09-17T07:47:07.053Z,10.50
2022-09-17T07:49:33.172Z,10.43
2022-09-17T07:51:59.256Z,10.49
2022-09-17T07:54:25.359Z,10.43
2022-09-17T07:56:51.458Z,10.50
2022-09-17T07:59:17.550Z,10.62
2022-09-17T08:01:43.725Z,10.42
2022-09-17T08:04:09.893Z,10.44
2022-09-17T08:06:35.993Z,10.65
2022-09-17T08:09:02.108Z,10.58
2022-09-17T08:11:51.875Z,10.59
2022-09-17T08:14:14.306Z,10.66
2022-09-17T08:16:40.430Z,10.59
2022-09-17T08:19:06.527Z,10.62
2022-09-17T08:21:32.618Z,10.68
2022-09-17T08:23:58.720Z,10.62
2022-09-17T08:26:24.830Z,10.78
2022-09-17T08:28:50.928Z,10.70
2022-09-17T08:31:17.460Z,10.66
2022-09-17T08:33:43.719Z,10.87
2022-09-17T08:36:09.896Z,10.94
2022-09-17T08:38:38.256Z,10.87
2022-09-17T08:41:04.679Z,10.82
2022-09-17T08:43:30.804Z,11.01
2022-09-17T08:45:57.512Z,11.21
2022-09-17T08:48:23.598Z,11.22
2022-09-17T08:50:49.696Z,11.29
2022-09-17T08:53:15.799Z,11.22
2022-09-17T08:55:41.903Z,11.26
2022-09-17T08:58:07.984Z,11.33
2022-09-17T09:00:34.093Z,11.41
2022-09-17T09:03:00.220Z,11.50
2022-09-17T09:05:26.345Z,11.60
2022-09-17T09:07:52.459Z,11.52
2022-09-17T09:10:18.548Z,11.67
2022-09-17T09:12:44.639Z,11.67
2022-09-17T09:15:10.742Z,11.65
2022-09-17T09:17:36.843Z,11.67
2022-09-17T09:20:02.937Z,11.52
2022-09-17T09:22:29.050Z,11.60
2022-09-17T09:24:55.153Z,11.69
2022-09-17T09:27:21.246Z,12.02
2022-09-17T09:29:47.343Z,12.14
2022-09-17T09:32:16.590Z,11.94
2022-09-17T09:34:43.024Z,11.99
2022-09-17T09:37:10.372Z,11.99
2022-09-17T09:39:42.492Z,12.05
2022-09-17T09:42:11.353Z,12.20
2022-09-17T09:44:37.511Z,12.29
2022-09-17T09:47:03.660Z,12.27
2022-09-17T09:49:30.428Z,12.34
2022-09-17T09:51:56.529Z,12.45
2022-09-17T09:54:22.626Z,12.65
2022-09-17T09:56:48.740Z,12.31
2022-09-17T09:59:14.833Z,12.38
2022-09-17T10:01:41.026Z,12.36
2022-09-17T10:04:07.206Z,12.53
2022-09-17T10:06:33.301Z,12.46
2022-09-17T10:08:59.419Z,12.36
2022-09-17T10:11:25.573Z,12.51
2022-09-17T10:13:51.738Z,12.57
2022-09-17T10:16:17.934Z,12.68
2022-09-17T10:18:44.207Z,12.76
2022-09-17T10:21:10.302Z,12.58
2022-09-17T10:23:36.444Z,12.65
2022-09-17T10:26:02.690Z,12.54
2022-09-17T10:28:28.920Z,12.55
2022-09-17T10:30:55.257Z,12.71
2022-09-17T10:33:21.932Z,12.86
2022-09-17T10:35:48.036Z,12.95
2022-09-17T10:38:14.172Z,13.03
2022-09-17T10:40:40.316Z,12.91
2022-09-17T10:43:06.446Z,13.00
2022-09-17T10:45:32.687Z,12.86
2022-09-17T10:47:58.820Z,13.07
2022-09-17T10:50:26.105Z,13.00
2022-09-17T10:52:52.237Z,13.01
2022-09-17T10:55:18.340Z,13.25
2022-09-17T10:57:44.431Z,13.32
2022-09-17T11:00:10.572Z,13.16
2022-09-17T11:02:36.830Z,13.15
2022-09-17T11:05:03.206Z,13.33
2022-09-17T11:07:29.322Z,13.40
2022-09-17T11:09:55.450Z,13.50
2022-09-17T11:12:21.546Z,13.38
2022-09-17T11:14:47.625Z,13.51
2022-09-17T11:17:13.732Z,13.53
2022-09-17T11:19:39.879Z,13.51
2022-09-17T11:22:05.983Z,13.66
2022-09-17T11:24:34.281Z,13.64
2022-09-17T11:27:00.373Z,13.53
2022-09-17T11:29:26.465Z,13.67
2022-09-17T11:31:52.654Z,13.62
2022-09-17T11:34:18.913Z,13.84
2022-09-17T11:36:45.045Z,14.00
2022-09-17T11:39:11.643Z,13.81
2022-09-17T11:41:37.736Z,14.01
2022-09-17T11:44:03.891Z,13.68
2022-09-17T11:46:30.118Z,14.02
2022-09-17T11:48:56.283Z,13.90
2022-09-17T11:51:22.381Z,13.75
2022-09-17T11:53:48.491Z,13.49
2022-09-17T11:56:16.127Z,13.41
2022-09-17T11:58:42.792Z,13.33
2022-09-17T12:01:08.890Z,13.19
2022-09-17T12:03:34.995Z,13.45
2022-09-17T12:06:01.094Z,13.42
2022-09-17T12:08:27.201Z,13.01
2022-09-17T12:10:53.282Z,12.90
2022-09-17T12:13:19.398Z,13.10
2022-09-17T12:15:48.675Z,13.09
2022-09-17T12:18:33.459Z,12.86
2022-09-17T12:20:59.820Z,13.13
2022-09-17T12:23:25.906Z,13.15
2022-09-17T12:25:52.000Z,13.48
2022-09-17T12:28:18.125Z,13.49
2022-09-17T12:30:44.213Z,13.41
2022-09-17T12:33:10.302Z,13.39
2022-09-17T12:36:02.404Z,13.44
2022-09-17T12:38:22.482Z,13.45
2022-09-17T12:40:48.954Z,13.12
2022-09-17T12:43:15.048Z,13.19
2022-09-17T12:45:41.142Z,12.96
2022-09-17T12:48:07.312Z,11.66
2022-09-17T12:50:33.425Z,11.41
2022-09-17T12:52:59.523Z,11.39
2022-09-17T12:55:25.973Z,11.54
2022-09-17T12:57:52.063Z,11.52
2022-09-17T13:00:18.154Z,11.42
2022-09-17T13:02:44.252Z,11.60
2022-09-17T13:05:10.356Z,11.55
2022-09-17T13:07:36.454Z,11.75
2022-09-17T13:10:02.567Z,11.77
2022-09-17T13:12:28.653Z,11.96
2022-09-17T13:14:54.754Z,12.02
2022-09-17T13:17:20.848Z,12.20
2022-09-17T13:19:46.944Z,12.21
2022-09-17T13:22:13.044Z,12.31
2022-09-17T13:24:39.153Z,12.20
2022-09-17T13:27:05.364Z,12.04
2022-09-17T13:29:31.574Z,12.06
2022-09-17T13:31:57.729Z,11.96
2022-09-17T13:34:23.815Z,12.04
2022-09-17T13:36:49.914Z,11.89
2022-09-17T13:39:16.043Z,11.65
2022-09-17T13:41:42.142Z,11.73
2022-09-17T13:44:08.238Z,11.30
2022-09-17T13:46:34.482Z,11.30
2022-09-17T13:49:00.686Z,11.51
2022-09-17T13:51:26.807Z,11.49
2022-09-17T13:53:52.993Z,11.51
2022-09-17T13:56:19.093Z,11.76
2022-09-17T13:58:45.387Z,12.07
2022-09-17T14:01:11.910Z,12.19
2022-09-17T14:03:38.188Z,12.38
2022-09-17T14:06:04.278Z,12.33
2022-09-17T14:08:30.460Z,12.21
2022-09-17T14:10:56.857Z,12.35
2022-09-17T14:13:22.969Z,12.21
2022-09-17T14:15:49.111Z,12.14
2022-09-17T14:18:15.215Z,12.04
2022-09-17T14:20:41.322Z,12.07
2022-09-17T14:23:07.433Z,12.07
2022-09-17T14:25:33.567Z,12.05
2022-09-17T14:27:59.892Z,12.15
2022-09-17T14:30:26.162Z,12.22
2022-09-17T14:32:52.481Z,12.20
2022-09-17T14:35:20.324Z,12.05
2022-09-17T14:37:46.766Z,11.97
2022-09-17T14:40:13.455Z,12.06
2022-09-17T14:42:39.614Z,12.18
2022-09-17T14:45:05.838Z,12.68
2022-09-17T14:47:31.987Z,12.55
2022-09-17T14:49:58.209Z,12.37
2022-09-17T14:52:24.394Z,12.29
2022-09-17T14:54:50.492Z,12.06
2022-09-17T14:57:16.578Z,12.15
2022-09-17T14:59:43.040Z,12.46
2022-09-17T15:02:09.235Z,12.45
2022-09-17T15:04:35.401Z,12.47
2022-09-17T15:07:01.518Z,13.15
2022-09-17T15:09:27.608Z,14.07
2022-09-17T15:11:53.718Z,14.16
2022-09-17T15:14:19.826Z,12.84
2022-09-17T15:16:45.911Z,12.56
2022-09-17T15:19:12.007Z,12.55
2022-09-17T15:21:38.118Z,12.33
2022-09-17T15:24:04.212Z,11.78
2022-09-17T15:26:30.324Z,11.72
2022-09-17T15:28:56.422Z,15.05
2022-09-17T15:31:22.654Z,15.43
2022-09-17T15:33:48.840Z,13.86
2022-09-17T15:36:14.943Z,15.91
2022-09-17T15:38:41.029Z,16.83
2022-09-17T15:41:07.122Z,14.73
2022-09-17T15:43:33.254Z,13.10
2022-09-17T15:45:59.376Z,13.31
2022-09-17T15:48:25.479Z,13.35
2022-09-17T15:50:52.065Z,13.39
2022-09-17T15:53:18.157Z,12.72
2022-09-17T15:55:44.276Z,12.61
2022-09-17T15:58:10.394Z,12.45
2022-09-17T16:00:36.493Z,12.45
2022-09-17T16:03:02.768Z,13.09
2022-09-17T16:05:28.973Z,13.84
2022-09-17T16:07:55.085Z,12.88
2022-09-17T16:10:21.205Z,12.46
2022-09-17T16:12:47.335Z,12.39
2022-09-17T16:15:13.438Z,12.67
2022-09-17T16:17:39.520Z,13.82
2022-09-17T16:20:06.491Z,14.12
2022-09-17T16:22:32.649Z,14.08
2022-09-17T16:24:58.730Z,13.45
2022-09-17T16:27:24.855Z,13.07
2022-09-17T16:29:50.937Z,13.51
2022-09-17T16:32:17.045Z,13.02
2022-09-17T16:34:43.167Z,12.68
2022-09-17T16:37:09.265Z,12.61
2022-09-17T16:39:35.357Z,12.71
2022-09-17T16:42:01.574Z,12.51
2022-09-17T16:44:27.672Z,12.44
2022-09-17T16:46:53.817Z,12.32
2022-09-17T16:49:19.944Z,12.25
2022-09-17T16:51:46.050Z,12.25
2022-09-17T16:54:12.141Z,12.11
2022-09-17T16:56:38.247Z,11.68
2022-09-17T16:59:04.347Z,11.43
2022-09-17T17:01:30.474Z,11.44
2022-09-17T17:03:58.162Z,11.56
2022-09-17T17:06:24.253Z,11.54
2022-09-17T17:08:50.348Z,11.49
2022-09-17T17:11:16.968Z,11.74
2022-09-17T17:13:43.106Z,11.51
2022-09-17T17:16:09.281Z,11.37
2022-09-17T17:18:35.675Z,11.44
2022-09-17T17:21:01.772Z,11.33
2022-09-17T17:23:27.853Z,11.18
2022-09-17T17:25:53.957Z,11.15
2022-09-17T17:28:20.056Z,11.05
2022-09-17T17:30:46.162Z,11.12
2022-09-17T17:33:12.274Z,11.02
2022-09-17T17:35:38.374Z,11.01
2022-09-17T17:38:04.480Z,10.98
2022-09-17T17:40:30.637Z,10.80
2022-09-17T17:42:56.819Z,10.91
2022-09-17T17:45:22.930Z,10.90
2022-09-17T17:47:49.055Z,10.86
2022-09-17T17:50:15.196Z,10.77
2022-09-17T17:52:44.155Z,10.76
2022-09-17T17:55:10.261Z,10.77
2022-09-17T17:57:36.353Z,10.76
2022-09-17T18:00:02.445Z,10.77
2022-09-17T18:02:28.732Z,10.77
2022-09-17T18:04:54.892Z,10.74
2022-09-17T18:07:20.994Z,10.66
2022-09-17T18:09:47.144Z,10.64
2022-09-17T18:12:13.307Z,10.63
2022-09-17T18:14:39.430Z,10.55
2022-09-17T18:17:05.559Z,10.48
2022-09-17T18:19:31.649Z,10.45
2022-09-17T18:21:57.729Z,10.45
2022-09-17T18:24:23.855Z,10.44
2022-09-17T18:26:49.958Z,10.34
2022-09-17T18:29:16.054Z,10.33
2022-09-17T18:31:42.223Z,10.24
2022-09-17T18:34:08.404Z,10.18
2022-09-17T18:36:34.529Z,10.20
2022-09-17T18:39:11.053Z,10.21
2022-09-17T18:41:46.836Z,10.18
2022-09-17T18:44:13.089Z,10.09
2022-09-17T18:46:39.413Z,10.10
2022-09-17T18:49:05.616Z,10.07
2022-09-17T18:51:31.754Z,10.12
2022-09-17T18:53:57.859Z,10.14
2022-09-17T18:56:23.950Z,10.13
2022-09-17T18:58:50.052Z,10.15
2022-09-17T19:01:16.290Z,10.17
2022-09-17T19:03:42.512Z,10.14
2022-09-17T19:06:08.636Z,10.13
2022-09-17T19:08:34.735Z,10.17
2022-09-17T19:11:00.832Z,10.22
2022-09-17T19:13:27.000Z,10.20
2022-09-17T19:15:53.238Z,10.22
2022-09-17T19:18:19.452Z,10.23
2022-09-17T19:20:45.641Z,10.23
2022-09-17T19:23:11.784Z,10.29
2022-09-17T19:25:37.900Z,10.23
2022-09-17T19:28:04.013Z,10.23
2022-09-17T19:30:30.174Z,10.27
2022-09-17T19:32:56.291Z,10.25
2022-09-17T19:35:22.398Z,10.22
2022-09-17T19:37:48.495Z,10.21
2022-09-17T19:40:14.649Z,10.18
2022-09-17T19:42:40.831Z,10.36
2022-09-17T19:45:06.957Z,10.42
2022-09-17T19:47:33.054Z,10.31
2022-09-17T19:49:59.360Z,10.27
2022-09-17T19:52:25.444Z,10.31
2022-09-17T19:54:51.545Z,10.22
2022-09-17T19:57:17.693Z,10.26
2022-09-17T19:59:43.780Z,10.29
2022-09-17T20:02:09.937Z,10.14
2022-09-17T20:04:36.205Z,10.12
2022-09-17T20:07:02.354Z,10.14
2022-09-17T20:09:28.481Z,10.13
2022-09-17T20:11:54.892Z,10.18
2022-09-17T20:14:20.980Z,10.12
2022-09-17T20:16:47.095Z,10.14
2022-09-17T20:19:13.624Z,10.16
2022-09-17T20:21:39.787Z,10.14
2022-09-17T20:24:05.883Z,10.20
2022-09-17T20:26:32.001Z,10.22
2022-09-17T20:28:58.217Z,10.23
2022-09-17T20:31:24.408Z,10.26
2022-09-17T20:33:50.556Z,10.24
2022-09-17T20:36:16.691Z,10.22
2022-09-17T20:39:11.385Z,10.34
2022-09-17T20:41:28.894Z,10.33
2022-09-17T20:43:54.973Z,10.27
2022-09-17T20:46:24.825Z,10.23
2022-09-17T20:48:53.874Z,10.28
2022-09-17T20:51:19.982Z,10.24
2022-09-17T20:53:46.086Z,10.27
2022-09-17T20:56:12.196Z,10.30
2022-09-17T20:58:38.276Z,10.20
2022-09-17T21:01:04.369Z,10.26
2022-09-17T21:03:30.960Z,10.31
2022-09-17T21:05:57.072Z,10.28
2022-09-17T21:08:23.186Z,10.34
2022-09-17T21:10:49.305Z,10.30
2022-09-17T21:13:15.406Z,10.22
2022-09-17T21:15:41.553Z,10.20
2022-09-17T21:18:09.070Z,10.23
2022-09-17T21:20:35.170Z,10.22
2022-09-17T21:23:01.262Z,10.18
2022-09-17T21:25:27.383Z,10.16
2022-09-17T21:27:53.468Z,10.14
2022-09-17T21:30:19.561Z,10.14
2022-09-17T21:32:45.668Z,10.05
2022-09-17T21:35:11.770Z,10.08
2022-09-17T21:37:37.862Z,10.09
2022-09-17T21:40:04.122Z,10.14
2022-09-17T21:42:30.266Z,10.17
2022-09-17T21:44:56.357Z,10.13
2022-09-17T21:47:22.470Z,10.08
2022-09-17T21:49:48.557Z,10.16
2022-09-17T21:52:14.664Z,10.19
2022-09-17T21:54:40.795Z,10.12
2022-09-17T21:57:06.911Z,10.10
2022-09-17T21:59:33.008Z,10.03
2022-09-17T22:01:59.171Z,10.08
2022-09-17T22:04:25.329Z,10.16
2022-09-17T22:06:51.421Z,10.14
2022-09-17T22:09:17.578Z,10.05
2022-09-17T22:11:43.718Z,9.96
2022-09-17T22:14:09.808Z,9.97
2022-09-17T22:16:36.011Z,10.07
2022-09-17T22:19:02.182Z,10.02
2022-09-17T22:21:28.267Z,9.94
2022-09-17T22:23:54.453Z,9.97
2022-09-17T22:26:20.554Z,9.86
2022-09-17T22:28:46.652Z,9.87
2022-09-17T22:31:12.789Z,9.90
2022-09-17T22:33:38.965Z,9.86
2022-09-17T22:36:05.074Z,9.84
2022-09-17T22:38:31.176Z,9.89
2022-09-17T22:40:57.264Z,9.80
2022-09-17T22:43:23.357Z,9.84
2022-09-17T22:45:49.486Z,9.88
2022-09-17T22:48:15.806Z,9.78
2022-09-17T22:50:41.899Z,9.74
2022-09-17T22:53:08.037Z,9.72
2022-09-17T22:55:34.127Z,9.74
2022-09-17T22:58:00.221Z,9.73
2022-09-17T23:00:26.361Z,9.69
2022-09-17T23:02:52.572Z,9.67
2022-09-17T23:05:18.701Z,9.76
2022-09-17T23:07:45.121Z,9.86
2022-09-17T23:10:11.227Z,9.82
2022-09-17T23:12:37.343Z,9.87
2022-09-17T23:15:03.467Z,9.77
2022-09-17T23:17:29.637Z,9.86
2022-09-17T23:19:55.741Z,9.64
2022-09-17T23:22:21.859Z,9.62
2022-09-17T23:24:47.948Z,9.68
2022-09-17T23:27:14.030Z,9.65
2022-09-17T23:29:40.426Z,9.59
2022-09-17T23:32:06.573Z,9.63
2022-09-17T23:34:32.666Z,9.63
2022-09-17T23:36:58.764Z,9.64
2022-09-17T23:39:24.903Z,9.69
2022-09-17T23:41:50.993Z,9.70
2022-09-17T23:44:17.097Z,9.69
2022-09-17T23:46:43.300Z,9.72
2022-09-17T23:49:09.445Z,9.77
2022-09-17T23:51:35.546Z,9.79
2022-09-17T23:54:01.666Z,9.71
2022-09-17T23:56:27.806Z,9.78
2022-09-17T23:58:53.915Z,9.90
